sensor_id;sensor_type;location;lat;lon;timestamp;pressure;altitude;pressure_sealevel;temperature;humidity
23589;BME280;11972;48.078;11.876;2022-12-18T00:00:21;96418.78;;;-4.35;100.00
23589;BME280;11972;48.078;11.876;2022-12-18T00:04:23;96411.28;;;-4.40;100.00
23589;BME280;11972;48.078;11.876;2022-12-18T00:08:24;96416.59;;;-4.44;100.00
23589;BME280;11972;48.078;11.876;2022-12-18T00:12:24;96416.44;;;-4.40;100.00
23589;BME280;11972;48.078;11.876;2022-12-18T00:16:26;96417.38;;;-4.42;100.00
23589;BME280;11972;48.078;11.876;2022-12-18T00:20:26;96410.69;;;-4.46;100.00
23589;BME280;11972;48.078;11.876;2022-12-18T00:24:26;96404.56;;;-4.44;100.00
23589;BME280;11972;48.078;11.876;2022-12-18T00:28:27;96407.00;;;-4.41;100.00
23589;BME280;11972;48.078;11.876;2022-12-18T00:32:27;96406.78;;;-4.36;100.00
23589;BME280;11972;48.078;11.876;2022-12-18T00:36:30;96409.84;;;-4.28;100.00
23589;BME280;11972;48.078;11.876;2022-12-18T00:40:31;96408.81;;;-4.24;100.00
23589;BME280;11972;48.078;11.876;2022-12-18T00:44:31;96406.38;;;-4.27;100.00
23589;BME280;11972;48.078;11.876;2022-12-18T00:48:32;96420.16;;;-4.28;100.00
23589;BME280;11972;48.078;11.876;2022-12-18T00:52:32;96425.50;;;-4.31;100.00
23589;BME280;11972;48.078;11.876;2022-12-18T00:56:35;96434.75;;;-4.27;100.00
23589;BME280;11972;48.078;11.876;2022-12-18T01:00:36;96428.69;;;-4.26;100.00
23589;BME280;11972;48.078;11.876;2022-12-18T01:04:38;96439.84;;;-4.26;100.00
23589;BME280;11972;48.078;11.876;2022-12-18T01:08:38;96443.19;;;-4.23;100.00
23589;BME280;11972;48.078;11.876;2022-12-18T01:12:39;96442.06;;;-4.18;100.00
23589;BME280;11972;48.078;11.876;2022-12-18T01:16:39;96435.88;;;-4.14;100.00
23589;BME280;11972;48.078;11.876;2022-12-18T01:20:39;96440.72;;;-4.08;100.00
23589;BME280;11972;48.078;11.876;2022-12-18T01:24:40;96433.00;;;-4.08;100.00
23589;BME280;11972;48.078;11.876;2022-12-18T01:28:44;96446.94;;;-4.12;100.00
23589;BME280;11972;48.078;11.876;2022-12-18T01:32:44;96456.28;;;-4.09;100.00
23589;BME280;11972;48.078;11.876;2022-12-18T01:36:44;96460.69;;;-4.11;100.00
23589;BME280;11972;48.078;11.876;2022-12-18T01:40:45;96469.53;;;-4.17;100.00
23589;BME280;11972;48.078;11.876;2022-12-18T01:49:01;96490.19;;;-4.17;100.00
23589;BME280;11972;48.078;11.876;2022-12-18T01:53:06;96498.53;;;-4.12;100.00
23589;BME280;11972;48.078;11.876;2022-12-18T01:57:07;96495.22;;;-4.14;100.00
23589;BME280;11972;48.078;11.876;2022-12-18T02:01:08;96493.13;;;-4.06;100.00
23589;BME280;11972;48.078;11.876;2022-12-18T02:05:10;96489.63;;;-4.05;100.00
23589;BME280;11972;48.078;11.876;2022-12-18T02:09:16;96482.38;;;-3.96;100.00
23589;BME280;11972;48.078;11.876;2022-12-18T02:18:04;96472.47;;;-4.06;100.00
23589;BME280;11972;48.078;11.876;2022-12-18T02:26:30;96481.13;;;-4.07;100.00
23589;BME280;11972;48.078;11.876;2022-12-18T02:30:33;96481.13;;;-4.07;100.00
23589;BME280;11972;48.078;11.876;2022-12-18T02:34:38;96473.41;;;-4.07;100.00
23589;BME280;11972;48.078;11.876;2022-12-18T02:38:39;96463.69;;;-4.02;100.00
23589;BME280;11972;48.078;11.876;2022-12-18T02:42:41;96458.66;;;-4.05;100.00
23589;BME280;11972;48.078;11.876;2022-12-18T02:46:52;96468.22;;;-4.07;100.00
23589;BME280;11972;48.078;11.876;2022-12-18T02:51:01;96474.44;;;-4.11;100.00
23589;BME280;11972;48.078;11.876;2022-12-18T02:59:25;96463.28;;;-4.11;100.00
23589;BME280;11972;48.078;11.876;2022-12-18T03:07:52;96462.22;;;-4.26;100.00
23589;BME280;11972;48.078;11.876;2022-12-18T03:12:01;96476.53;;;-4.19;100.00
23589;BME280;11972;48.078;11.876;2022-12-18T03:16:27;96474.00;;;-4.39;100.00
23589;BME280;11972;48.078;11.876;2022-12-18T03:20:31;96471.50;;;-4.22;100.00
23589;BME280;11972;48.078;11.876;2022-12-18T03:24:35;96467.25;;;-4.23;100.00
23589;BME280;11972;48.078;11.876;2022-12-18T03:28:44;96482.78;;;-4.25;100.00
23589;BME280;11972;48.078;11.876;2022-12-18T03:32:53;96467.19;;;-4.21;100.00
23589;BME280;11972;48.078;11.876;2022-12-18T03:36:56;96460.06;;;-4.16;100.00
23589;BME280;11972;48.078;11.876;2022-12-18T03:41:10;96460.75;;;-4.13;100.00
23589;BME280;11972;48.078;11.876;2022-12-18T03:49:34;96464.50;;;-4.20;100.00
23589;BME280;11972;48.078;11.876;2022-12-18T03:53:47;96456.72;;;-4.18;100.00
23589;BME280;11972;48.078;11.876;2022-12-18T03:57:52;96472.13;;;-4.17;100.00
23589;BME280;11972;48.078;11.876;2022-12-18T04:01:53;96480.78;;;-4.18;100.00
23589;BME280;11972;48.078;11.876;2022-12-18T04:05:56;96476.78;;;-4.25;100.00
23589;BME280;11972;48.078;11.876;2022-12-18T04:10:01;96470.09;;;-4.29;100.00
23589;BME280;11972;48.078;11.876;2022-12-18T04:14:02;96464.94;;;-4.29;100.00
23589;BME280;11972;48.078;11.876;2022-12-18T04:18:02;96482.06;;;-4.28;100.00
23589;BME280;11972;48.078;11.876;2022-12-18T04:22:03;96475.00;;;-4.23;100.00
23589;BME280;11972;48.078;11.876;2022-12-18T04:26:04;96481.31;;;-4.30;100.00
23589;BME280;11972;48.078;11.876;2022-12-18T04:30:05;96489.06;;;-4.30;100.00
23589;BME280;11972;48.078;11.876;2022-12-18T04:34:05;96470.03;;;-4.28;100.00
23589;BME280;11972;48.078;11.876;2022-12-18T04:38:06;96468.13;;;-4.24;100.00
23589;BME280;11972;48.078;11.876;2022-12-18T04:42:08;96484.47;;;-4.23;100.00
23589;BME280;11972;48.078;11.876;2022-12-18T04:46:08;96485.16;;;-4.20;100.00
23589;BME280;11972;48.078;11.876;2022-12-18T04:50:09;96480.00;;;-4.20;100.00
23589;BME280;11972;48.078;11.876;2022-12-18T04:54:09;96494.25;;;-4.11;100.00
23589;BME280;11972;48.078;11.876;2022-12-18T04:58:10;96491.84;;;-4.16;100.00
23589;BME280;11972;48.078;11.876;2022-12-18T05:02:10;96499.47;;;-4.13;100.00
23589;BME280;11972;48.078;11.876;2022-12-18T05:06:10;96515.28;;;-4.20;100.00
23589;BME280;11972;48.078;11.876;2022-12-18T05:10:11;96506.34;;;-4.32;100.00
23589;BME280;11972;48.078;11.876;2022-12-18T05:14:11;96497.28;;;-4.22;100.00
23589;BME280;11972;48.078;11.876;2022-12-18T05:18:11;96505.41;;;-4.11;100.00
23589;BME280;11972;48.078;11.876;2022-12-18T05:22:12;96507.19;;;-4.13;100.00
23589;BME280;11972;48.078;11.876;2022-12-18T05:26:15;96528.06;;;-4.17;100.00
23589;BME280;11972;48.078;11.876;2022-12-18T05:30:16;96535.03;;;-4.19;100.00
23589;BME280;11972;48.078;11.876;2022-12-18T05:34:17;96519.59;;;-4.21;100.00
23589;BME280;11972;48.078;11.876;2022-12-18T05:38:18;96524.84;;;-4.22;100.00
23589;BME280;11972;48.078;11.876;2022-12-18T05:42:19;96527.56;;;-4.26;100.00
23589;BME280;11972;48.078;11.876;2022-12-18T05:46:19;96525.94;;;-4.28;100.00
23589;BME280;11972;48.078;11.876;2022-12-18T05:50:19;96523.50;;;-4.31;100.00
23589;BME280;11972;48.078;11.876;2022-12-18T05:54:20;96533.00;;;-4.32;100.00
23589;BME280;11972;48.078;11.876;2022-12-18T05:58:20;96530.75;;;-4.39;100.00
23589;BME280;11972;48.078;11.876;2022-12-18T06:02:20;96547.56;;;-4.31;100.00
23589;BME280;11972;48.078;11.876;2022-12-18T06:06:27;96539.00;;;-4.31;100.00
23589;BME280;11972;48.078;11.876;2022-12-18T06:10:27;96552.38;;;-4.23;100.00
23589;BME280;11972;48.078;11.876;2022-12-18T06:14:28;96545.53;;;-4.24;100.00
23589;BME280;11972;48.078;11.876;2022-12-18T06:18:28;96550.97;;;-4.30;100.00
23589;BME280;11972;48.078;11.876;2022-12-18T06:22:30;96544.34;;;-4.36;100.00
23589;BME280;11972;48.078;11.876;2022-12-18T06:26:31;96555.56;;;-4.37;100.00
23589;BME280;11972;48.078;11.876;2022-12-18T06:30:31;96561.81;;;-4.42;100.00
23589;BME280;11972;48.078;11.876;2022-12-18T06:34:32;96546.66;;;-4.50;100.00
23589;BME280;11972;48.078;11.876;2022-12-18T06:38:34;96552.63;;;-4.48;100.00
23589;BME280;11972;48.078;11.876;2022-12-18T06:42:35;96556.16;;;-4.51;100.00
23589;BME280;11972;48.078;11.876;2022-12-18T06:46:35;96558.72;;;-4.51;100.00
23589;BME280;11972;48.078;11.876;2022-12-18T06:50:35;96563.88;;;-4.51;100.00
23589;BME280;11972;48.078;11.876;2022-12-18T06:54:36;96570.72;;;-4.50;100.00
23589;BME280;11972;48.078;11.876;2022-12-18T06:58:40;96571.75;;;-4.54;100.00
23589;BME280;11972;48.078;11.876;2022-12-18T07:02:40;96580.91;;;-4.46;100.00
23589;BME280;11972;48.078;11.876;2022-12-18T07:06:41;96577.50;;;-4.67;100.00
23589;BME280;11972;48.078;11.876;2022-12-18T07:10:42;96590.31;;;-4.66;100.00
23589;BME280;11972;48.078;11.876;2022-12-18T07:14:43;96597.00;;;-4.62;100.00
23589;BME280;11972;48.078;11.876;2022-12-18T07:18:43;96609.91;;;-4.62;100.00
23589;BME280;11972;48.078;11.876;2022-12-18T07:22:44;96608.13;;;-4.60;100.00
23589;BME280;11972;48.078;11.876;2022-12-18T07:26:47;96615.97;;;-4.42;100.00
23589;BME280;11972;48.078;11.876;2022-12-18T07:30:48;96617.78;;;-4.44;100.00
23589;BME280;11972;48.078;11.876;2022-12-18T07:34:48;96620.22;;;-4.41;100.00
23589;BME280;11972;48.078;11.876;2022-12-18T07:38:49;96614.13;;;-4.39;100.00
23589;BME280;11972;48.078;11.876;2022-12-18T07:42:51;96628.47;;;-4.33;100.00
23589;BME280;11972;48.078;11.876;2022-12-18T07:46:51;96629.97;;;-4.48;100.00
23589;BME280;11972;48.078;11.876;2022-12-18T07:50:52;96632.31;;;-4.84;100.00
23589;BME280;11972;48.078;11.876;2022-12-18T07:54:52;96624.84;;;-4.70;100.00
23589;BME280;11972;48.078;11.876;2022-12-18T07:58:53;96633.25;;;-4.65;100.00
23589;BME280;11972;48.078;11.876;2022-12-18T08:02:53;96621.56;;;-4.53;100.00
23589;BME280;11972;48.078;11.876;2022-12-18T08:06:54;96616.75;;;-4.40;100.00
23589;BME280;11972;48.078;11.876;2022-12-18T08:10:55;96611.06;;;-4.28;100.00
23589;BME280;11972;48.078;11.876;2022-12-18T08:14:55;96615.69;;;-4.16;100.00
23589;BME280;11972;48.078;11.876;2022-12-18T08:18:55;96612.09;;;-4.12;100.00
23589;BME280;11972;48.078;11.876;2022-12-18T08:22:56;96622.28;;;-4.09;100.00
23589;BME280;11972;48.078;11.876;2022-12-18T08:26:58;96635.81;;;-4.04;100.00
23589;BME280;11972;48.078;11.876;2022-12-18T08:30:58;96640.84;;;-4.01;100.00
23589;BME280;11972;48.078;11.876;2022-12-18T08:34:58;96639.78;;;-3.95;100.00
23589;BME280;11972;48.078;11.876;2022-12-18T08:38:59;96643.13;;;-3.93;100.00
23589;BME280;11972;48.078;11.876;2022-12-18T08:42:59;96649.81;;;-3.89;100.00
23589;BME280;11972;48.078;11.876;2022-12-18T08:47:18;96652.22;;;-4.05;100.00
23589;BME280;11972;48.078;11.876;2022-12-18T08:51:19;96645.09;;;-4.00;100.00
23589;BME280;11972;48.078;11.876;2022-12-18T08:55:19;96656.66;;;-3.88;100.00
23589;BME280;11972;48.078;11.876;2022-12-18T08:59:20;96647.28;;;-3.70;100.00
23589;BME280;11972;48.078;11.876;2022-12-18T09:03:21;96638.50;;;-3.66;100.00
23589;BME280;11972;48.078;11.876;2022-12-18T09:07:22;96639.00;;;-3.58;100.00
23589;BME280;11972;48.078;11.876;2022-12-18T09:11:25;96647.06;;;-3.46;100.00
23589;BME280;11972;48.078;11.876;2022-12-18T09:15:26;96644.09;;;-3.37;100.00
23589;BME280;11972;48.078;11.876;2022-12-18T09:19:26;96654.06;;;-3.11;100.00
23589;BME280;11972;48.078;11.876;2022-12-18T09:23:27;96657.13;;;-3.03;100.00
23589;BME280;11972;48.078;11.876;2022-12-18T09:27:27;96656.06;;;-2.98;100.00
23589;BME280;11972;48.078;11.876;2022-12-18T09:31:27;96649.53;;;-2.88;100.00
23589;BME280;11972;48.078;11.876;2022-12-18T09:35:28;96644.09;;;-2.82;100.00
23589;BME280;11972;48.078;11.876;2022-12-18T09:39:28;96641.66;;;-2.85;100.00
23589;BME280;11972;48.078;11.876;2022-12-18T09:43:39;96650.41;;;-2.88;100.00
23589;BME280;11972;48.078;11.876;2022-12-18T09:47:42;96649.50;;;-2.87;100.00
23589;BME280;11972;48.078;11.876;2022-12-18T09:51:48;96655.13;;;-2.79;100.00
23589;BME280;11972;48.078;11.876;2022-12-18T09:55:51;96655.66;;;-2.72;100.00
23589;BME280;11972;48.078;11.876;2022-12-18T09:59:56;96644.56;;;-2.74;100.00
23589;BME280;11972;48.078;11.876;2022-12-18T10:03:59;96638.47;;;-2.73;100.00
23589;BME280;11972;48.078;11.876;2022-12-18T10:12:13;96623.06;;;-2.57;100.00
23589;BME280;11972;48.078;11.876;2022-12-18T10:16:24;96613.41;;;-2.54;100.00
23589;BME280;11972;48.078;11.876;2022-12-18T10:20:39;96605.41;;;-2.49;100.00
23589;BME280;11972;48.078;11.876;2022-12-18T10:28:59;96599.91;;;-2.43;100.00
23589;BME280;11972;48.078;11.876;2022-12-18T10:33:01;96591.75;;;-2.35;100.00
23589;BME280;11972;48.078;11.876;2022-12-18T10:37:06;96587.97;;;-2.28;100.00
23589;BME280;11972;48.078;11.876;2022-12-18T10:41:24;96585.81;;;-2.20;100.00
23589;BME280;11972;48.078;11.876;2022-12-18T10:45:26;96585.19;;;-2.08;100.00
23589;BME280;11972;48.078;11.876;2022-12-18T10:49:29;96588.56;;;-2.06;100.00
23589;BME280;11972;48.078;11.876;2022-12-18T10:53:33;96591.66;;;-1.99;100.00
23589;BME280;11972;48.078;11.876;2022-12-18T10:57:38;96593.50;;;-1.85;100.00
23589;BME280;11972;48.078;11.876;2022-12-18T11:01:53;96588.59;;;-1.74;100.00
23589;BME280;11972;48.078;11.876;2022-12-18T11:06:10;96579.44;;;-1.64;100.00
23589;BME280;11972;48.078;11.876;2022-12-18T11:10:16;96584.94;;;-1.70;100.00
23589;BME280;11972;48.078;11.876;2022-12-18T11:18:35;96580.13;;;-1.60;100.00
23589;BME280;11972;48.078;11.876;2022-12-18T11:22:37;96580.34;;;-1.65;100.00
23589;BME280;11972;48.078;11.876;2022-12-18T11:26:39;96582.78;;;-1.62;100.00
23589;BME280;11972;48.078;11.876;2022-12-18T11:30:43;96586.38;;;-1.64;100.00
23589;BME280;11972;48.078;11.876;2022-12-18T11:34:46;96586.59;;;-1.69;100.00
23589;BME280;11972;48.078;11.876;2022-12-18T11:38:49;96590.41;;;-1.59;100.00
23589;BME280;11972;48.078;11.876;2022-12-18T11:42:56;96589.47;;;-1.58;100.00
23589;BME280;11972;48.078;11.876;2022-12-18T11:55:16;96576.94;;;-1.50;100.00
23589;BME280;11972;48.078;11.876;2022-12-18T12:03:51;96570.91;;;-1.50;100.00
23589;BME280;11972;48.078;11.876;2022-12-18T12:25:43;96561.97;;;-1.76;100.00
23589;BME280;11972;48.078;11.876;2022-12-18T12:34:01;96556.16;;;-1.81;100.00
23589;BME280;11972;48.078;11.876;2022-12-18T12:38:11;96550.66;;;-1.91;100.00
23589;BME280;11972;48.078;11.876;2022-12-18T12:42:31;96552.06;;;-2.01;100.00
23589;BME280;11972;48.078;11.876;2022-12-18T12:46:52;96533.41;;;-2.08;100.00
23589;BME280;11972;48.078;11.876;2022-12-18T12:50:56;96538.75;;;-2.11;100.00
23589;BME280;11972;48.078;11.876;2022-12-18T12:54:58;96533.81;;;-2.15;100.00
23589;BME280;11972;48.078;11.876;2022-12-18T13:03:29;96539.66;;;-2.12;100.00
23589;BME280;11972;48.078;11.876;2022-12-18T13:07:47;96538.94;;;-2.14;100.00
23589;BME280;11972;48.078;11.876;2022-12-18T13:11:50;96546.84;;;-2.17;100.00
23589;BME280;11972;48.078;11.876;2022-12-18T13:16:10;96550.06;;;-2.29;100.00
23589;BME280;11972;48.078;11.876;2022-12-18T13:20:12;96554.91;;;-2.23;100.00
23589;BME280;11972;48.078;11.876;2022-12-18T13:24:23;96557.94;;;-2.15;100.00
23589;BME280;11972;48.078;11.876;2022-12-18T13:32:47;96562.25;;;-1.98;100.00
23589;BME280;11972;48.078;11.876;2022-12-18T13:36:48;96564.91;;;-2.00;100.00
23589;BME280;11972;48.078;11.876;2022-12-18T13:44:49;96571.59;;;-2.29;100.00
23589;BME280;11972;48.078;11.876;2022-12-18T13:49:13;96574.03;;;-2.43;100.00
23589;BME280;11972;48.078;11.876;2022-12-18T13:53:22;96559.81;;;-2.52;100.00
23589;BME280;11972;48.078;11.876;2022-12-18T14:01:32;96566.88;;;-2.55;100.00
23589;BME280;11972;48.078;11.876;2022-12-18T14:05:35;96569.19;;;-2.66;100.00
23589;BME280;11972;48.078;11.876;2022-12-18T14:09:40;96559.31;;;-2.76;100.00
23589;BME280;11972;48.078;11.876;2022-12-18T14:13:42;96565.59;;;-2.81;100.00
23589;BME280;11972;48.078;11.876;2022-12-18T14:17:42;96563.31;;;-2.87;100.00
23589;BME280;11972;48.078;11.876;2022-12-18T14:21:50;96558.91;;;-3.03;100.00
23589;BME280;11972;48.078;11.876;2022-12-18T14:25:51;96556.97;;;-3.16;100.00
23589;BME280;11972;48.078;11.876;2022-12-18T14:29:52;96567.69;;;-3.24;100.00
23589;BME280;11972;48.078;11.876;2022-12-18T14:33:53;96579.19;;;-3.31;100.00
23589;BME280;11972;48.078;11.876;2022-12-18T14:37:53;96569.16;;;-3.37;100.00
23589;BME280;11972;48.078;11.876;2022-12-18T14:42:10;96563.53;;;-3.45;100.00
23589;BME280;11972;48.078;11.876;2022-12-18T14:46:44;96558.53;;;-3.50;100.00
23589;BME280;11972;48.078;11.876;2022-12-18T14:50:55;96571.53;;;-3.52;100.00
23589;BME280;11972;48.078;11.876;2022-12-18T14:54:56;96564.84;;;-3.56;100.00
23589;BME280;11972;48.078;11.876;2022-12-18T15:02:59;96559.63;;;-3.73;100.00
23589;BME280;11972;48.078;11.876;2022-12-18T15:11:45;96552.84;;;-3.94;100.00
23589;BME280;11972;48.078;11.876;2022-12-18T15:15:47;96556.84;;;-4.08;100.00
23589;BME280;11972;48.078;11.876;2022-12-18T15:19:50;96563.25;;;-4.16;100.00
23589;BME280;11972;48.078;11.876;2022-12-18T15:23:52;96554.06;;;-4.22;100.00
23589;BME280;11972;48.078;11.876;2022-12-18T15:27:53;96564.63;;;-4.28;100.00
23589;BME280;11972;48.078;11.876;2022-12-18T15:32:04;96559.75;;;-4.34;100.00
23589;BME280;11972;48.078;11.876;2022-12-18T15:36:10;96560.97;;;-4.43;100.00
23589;BME280;11972;48.078;11.876;2022-12-18T15:40:13;96558.84;;;-4.54;100.00
23589;BME280;11972;48.078;11.876;2022-12-18T15:44:23;96569.44;;;-4.60;100.00
23589;BME280;11972;48.078;11.876;2022-12-18T15:48:23;96573.97;;;-4.65;100.00
23589;BME280;11972;48.078;11.876;2022-12-18T15:52:24;96565.50;;;-4.68;100.00
23589;BME280;11972;48.078;11.876;2022-12-18T15:56:26;96571.63;;;-4.71;100.00
23589;BME280;11972;48.078;11.876;2022-12-18T16:00:45;96576.31;;;-4.81;100.00
23589;BME280;11972;48.078;11.876;2022-12-18T16:04:46;96578.22;;;-4.86;100.00
23589;BME280;11972;48.078;11.876;2022-12-18T16:08:46;96568.00;;;-4.87;100.00
23589;BME280;11972;48.078;11.876;2022-12-18T16:12:47;96569.75;;;-4.88;100.00
23589;BME280;11972;48.078;11.876;2022-12-18T16:16:49;96571.53;;;-4.90;100.00
23589;BME280;11972;48.078;11.876;2022-12-18T16:20:50;96570.56;;;-4.87;100.00
23589;BME280;11972;48.078;11.876;2022-12-18T16:24:52;96568.94;;;-4.90;100.00
23589;BME280;11972;48.078;11.876;2022-12-18T16:28:53;96574.28;;;-4.94;100.00
23589;BME280;11972;48.078;11.876;2022-12-18T16:32:54;96569.13;;;-4.94;100.00
23589;BME280;11972;48.078;11.876;2022-12-18T16:36:55;96550.34;;;-4.96;100.00
23589;BME280;11972;48.078;11.876;2022-12-18T16:40:56;96558.97;;;-4.97;100.00
23589;BME280;11972;48.078;11.876;2022-12-18T16:45:17;96552.09;;;-4.97;100.00
23589;BME280;11972;48.078;11.876;2022-12-18T16:49:18;96547.75;;;-4.96;100.00
23589;BME280;11972;48.078;11.876;2022-12-18T16:53:19;96539.25;;;-4.99;100.00
23589;BME280;11972;48.078;11.876;2022-12-18T16:57:20;96539.25;;;-4.99;100.00
23589;BME280;11972;48.078;11.876;2022-12-18T17:01:21;96532.34;;;-4.98;100.00
23589;BME280;11972;48.078;11.876;2022-12-18T17:05:22;96545.19;;;-4.96;100.00
23589;BME280;11972;48.078;11.876;2022-12-18T17:09:22;96534.81;;;-4.95;100.00
23589;BME280;11972;48.078;11.876;2022-12-18T17:13:25;96546.75;;;-4.92;100.00
23589;BME280;11972;48.078;11.876;2022-12-18T17:17:26;96556.94;;;-4.89;100.00
23589;BME280;11972;48.078;11.876;2022-12-18T17:21:27;96556.03;;;-4.88;100.00
23589;BME280;11972;48.078;11.876;2022-12-18T17:25:27;96554.19;;;-4.86;100.00
23589;BME280;11972;48.078;11.876;2022-12-18T17:29:28;96554.88;;;-4.81;100.00
23589;BME280;11972;48.078;11.876;2022-12-18T17:33:28;96546.34;;;-4.83;100.00
23589;BME280;11972;48.078;11.876;2022-12-18T17:37:28;96547.81;;;-4.78;100.00
23589;BME280;11972;48.078;11.876;2022-12-18T17:41:29;96548.16;;;-4.85;100.00
23589;BME280;11972;48.078;11.876;2022-12-18T17:45:30;96546.34;;;-4.83;100.00
23589;BME280;11972;48.078;11.876;2022-12-18T17:49:30;96550.59;;;-4.82;100.00
23589;BME280;11972;48.078;11.876;2022-12-18T17:53:31;96556.66;;;-4.83;100.00
23589;BME280;11972;48.078;11.876;2022-12-18T17:57:31;96554.19;;;-4.86;100.00
23589;BME280;11972;48.078;11.876;2022-12-18T18:01:32;96549.00;;;-4.85;100.00
23589;BME280;11972;48.078;11.876;2022-12-18T18:05:32;96549.84;;;-4.84;100.00
23589;BME280;11972;48.078;11.876;2022-12-18T18:09:32;96549.94;;;-4.87;100.00
23589;BME280;11972;48.078;11.876;2022-12-18T18:13:33;96547.47;;;-4.89;100.00
23589;BME280;11972;48.078;11.876;2022-12-18T18:17:51;96556.06;;;-4.90;100.00
23589;BME280;11972;48.078;11.876;2022-12-18T18:21:52;96549.94;;;-4.87;100.00
23589;BME280;11972;48.078;11.876;2022-12-18T18:25:53;96553.50;;;-4.90;100.00
23589;BME280;11972;48.078;11.876;2022-12-18T18:29:53;96546.63;;;-4.89;100.00
23589;BME280;11972;48.078;11.876;2022-12-18T18:33:54;96548.53;;;-4.94;100.00
23589;BME280;11972;48.078;11.876;2022-12-18T18:37:54;96534.81;;;-4.95;100.00
23589;BME280;11972;48.078;11.876;2022-12-18T18:41:55;96541.81;;;-4.99;100.00
23589;BME280;11972;48.078;11.876;2022-12-18T18:46:01;96545.41;;;-5.03;100.00
23589;BME280;11972;48.078;11.876;2022-12-18T18:50:01;96542.19;;;-5.08;100.00
23589;BME280;11972;48.078;11.876;2022-12-18T18:54:02;96541.25;;;-5.05;100.00
23589;BME280;11972;48.078;11.876;2022-12-18T18:58:02;96541.44;;;-5.10;100.00
23589;BME280;11972;48.078;11.876;2022-12-18T19:02:03;96540.66;;;-5.12;100.00
23589;BME280;11972;48.078;11.876;2022-12-18T19:06:05;96535.59;;;-5.15;100.00
23589;BME280;11972;48.078;11.876;2022-12-18T19:10:06;96531.63;;;-5.22;100.00
23589;BME280;11972;48.078;11.876;2022-12-18T19:14:09;96529.16;;;-5.25;100.00
23589;BME280;11972;48.078;11.876;2022-12-18T19:18:10;96513.84;;;-5.28;100.00
23589;BME280;11972;48.078;11.876;2022-12-18T19:22:10;96510.50;;;-5.30;100.00
23589;BME280;11972;48.078;11.876;2022-12-18T19:26:10;96507.38;;;-5.38;100.00
23589;BME280;11972;48.078;11.876;2022-12-18T19:30:11;96508.53;;;-5.45;100.00
23589;BME280;11972;48.078;11.876;2022-12-18T19:34:11;96506.91;;;-5.48;100.00
23589;BME280;11972;48.078;11.876;2022-12-18T19:38:12;96505.22;;;-5.49;100.00
23589;BME280;11972;48.078;11.876;2022-12-18T19:42:12;96502.72;;;-5.51;100.00
23589;BME280;11972;48.078;11.876;2022-12-18T19:46:16;96499.25;;;-5.50;100.00
23589;BME280;11972;48.078;11.876;2022-12-18T19:50:16;96500.91;;;-5.49;100.00
23589;BME280;11972;48.078;11.876;2022-12-18T19:54:17;96505.84;;;-5.42;100.00
23589;BME280;11972;48.078;11.876;2022-12-18T19:58:17;96498.88;;;-5.40;100.00
23589;BME280;11972;48.078;11.876;2022-12-18T20:02:17;96504.13;;;-5.43;100.00
23589;BME280;11972;48.078;11.876;2022-12-18T20:06:27;96500.78;;;-5.45;100.00
23589;BME280;11972;48.078;11.876;2022-12-18T20:10:28;96496.47;;;-5.45;100.00
23589;BME280;11972;48.078;11.876;2022-12-18T20:14:28;96481.16;;;-5.48;100.00
23589;BME280;11972;48.078;11.876;2022-12-18T20:18:29;96489.88;;;-5.52;100.00
23589;BME280;11972;48.078;11.876;2022-12-18T20:22:29;96494.22;;;-5.53;100.00
23589;BME280;11972;48.078;11.876;2022-12-18T20:26:30;96498.53;;;-5.53;100.00
23589;BME280;11972;48.078;11.876;2022-12-18T20:30:30;96504.41;;;-5.50;100.00
23589;BME280;11972;48.078;11.876;2022-12-18T20:34:30;96499.16;;;-5.48;100.00
23589;BME280;11972;48.078;11.876;2022-12-18T20:38:32;96496.59;;;-5.48;100.00
23589;BME280;11972;48.078;11.876;2022-12-18T20:42:32;96488.94;;;-5.50;100.00
23589;BME280;11972;48.078;11.876;2022-12-18T20:46:32;96488.84;;;-5.46;100.00
23589;BME280;11972;48.078;11.876;2022-12-18T20:50:33;96475.88;;;-5.45;100.00
23589;BME280;11972;48.078;11.876;2022-12-18T20:54:33;96478.53;;;-5.46;100.00
23589;BME280;11972;48.078;11.876;2022-12-18T20:58:34;96473.50;;;-5.50;100.00
23589;BME280;11972;48.078;11.876;2022-12-18T21:02:35;96471.69;;;-5.47;100.00
23589;BME280;11972;48.078;11.876;2022-12-18T21:06:35;96480.38;;;-5.50;100.00
23589;BME280;11972;48.078;11.876;2022-12-18T21:10:36;96476.78;;;-5.46;100.00
23589;BME280;11972;48.078;11.876;2022-12-18T21:14:36;96484.56;;;-5.47;100.00
23589;BME280;11972;48.078;11.876;2022-12-18T21:18:36;96483.00;;;-5.52;100.00
23589;BME280;11972;48.078;11.876;2022-12-18T21:22:37;96500.38;;;-5.57;100.00
23589;BME280;11972;48.078;11.876;2022-12-18T21:26:38;96496.13;;;-5.58;100.00
23589;BME280;11972;48.078;11.876;2022-12-18T21:30:39;96472.06;;;-5.57;100.00
23589;BME280;11972;48.078;11.876;2022-12-18T21:34:39;96469.38;;;-5.54;100.00
23589;BME280;11972;48.078;11.876;2022-12-18T21:38:39;96464.97;;;-5.52;100.00
23589;BME280;11972;48.078;11.876;2022-12-18T21:42:40;96460.69;;;-5.51;100.00
23589;BME280;11972;48.078;11.876;2022-12-18T21:46:58;96473.50;;;-5.50;100.00
23589;BME280;11972;48.078;11.876;2022-12-18T21:50:59;96470.84;;;-5.48;100.00
23589;BME280;11972;48.078;11.876;2022-12-18T21:55:00;96465.88;;;-5.53;100.00
23589;BME280;11972;48.078;11.876;2022-12-18T21:59:01;96458.28;;;-5.56;100.00
23589;BME280;11972;48.078;11.876;2022-12-18T22:03:01;96446.31;;;-5.57;100.00
23589;BME280;11972;48.078;11.876;2022-12-18T22:07:03;96454.13;;;-5.58;100.00
23589;BME280;11972;48.078;11.876;2022-12-18T22:11:04;96425.06;;;-5.62;100.00
23589;BME280;11972;48.078;11.876;2022-12-18T22:15:04;96418.59;;;-5.72;100.00
23589;BME280;11972;48.078;11.876;2022-12-18T22:19:05;96427.97;;;-5.91;100.00
23589;BME280;11972;48.078;11.876;2022-12-18T22:23:06;96442.41;;;-6.09;100.00
23589;BME280;11972;48.078;11.876;2022-12-18T22:27:08;96444.69;;;-6.23;100.00
23589;BME280;11972;48.078;11.876;2022-12-18T22:31:08;96455.03;;;-6.25;100.00